Time;durP1;ratioP1;P1;durP2;ratioP2;P2;SDS_P1;SDS_P2;PMS_P1;PMS_P2;Temp;Humidity;BMP_temperature;BMP_pressure;BME280_temperature;BME280_humidity;BME280_pressure;Samples;Min_cycle;Max_cycle;Signal;HPM_P1;HPM_P2
2023/02/22 00:00:41;;;;;;;11.17;6.17;;;4.50;99.90;;;;;;5027979;28;20032;-69
2023/02/22 00:03:23;;;;;;;14.13;6.28;;;4.50;99.90;;;;;;5020730;28;20800;-69
2023/02/22 00:05:52;;;;;;;15.38;6.70;;;4.40;99.90;;;;;;5019337;28;20041;-71
2023/02/22 00:08:20;;;;;;;10.52;6.30;;;4.40;99.90;;;;;;5020682;28;20076;-69
2023/02/22 00:10:50;;;;;;;12.82;6.45;;;4.30;99.90;;;;;;5018454;28;20132;-71
2023/02/22 00:13:16;;;;;;;12.80;6.45;;;4.30;99.90;;;;;;5015469;28;20535;-69
2023/02/22 00:15:43;;;;;;;15.13;6.97;;;4.20;99.90;;;;;;5017578;28;20030;-70
2023/02/22 00:18:13;;;;;;;14.98;6.45;;;4.20;99.90;;;;;;5028677;28;20036;-69
2023/02/22 00:20:39;;;;;;;17.95;6.50;;;4.20;99.90;;;;;;5018510;28;20036;-69
2023/02/22 00:23:07;;;;;;;14.98;6.45;;;4.30;99.90;;;;;;5022911;28;20034;-69
2023/02/22 00:25:33;;;;;;;11.40;5.75;;;4.30;99.90;;;;;;5017039;28;20033;-69
2023/02/22 00:27:59;;;;;;;9.15;5.18;;;4.30;99.90;;;;;;5022781;28;20030;-69
2023/02/22 00:30:27;;;;;;;10.05;4.85;;;4.30;99.90;;;;;;5018824;28;20049;-69
2023/02/22 00:32:55;;;;;;;8.95;5.15;;;4.40;99.90;;;;;;5025580;28;20110;-69
2023/02/22 00:35:27;;;;;;;10.00;5.53;;;4.20;99.90;;;;;;5016245;28;20475;-69
2023/02/22 00:37:55;;;;;;;9.93;5.57;;;4.10;99.90;;;;;;5025182;28;20739;-69
2023/02/22 00:40:23;;;;;;;9.65;5.20;;;1.00;99.90;;;;;;5022332;28;20479;-72
2023/02/22 00:42:50;;;;;;;11.40;5.30;;;4.00;99.90;;;;;;5018526;28;20030;-69
2023/02/22 00:45:18;;;;;;;13.98;5.88;;;4.00;99.90;;;;;;5017364;28;20068;-69
2023/02/22 00:47:44;;;;;;;14.20;6.18;;;4.00;99.90;;;;;;5011902;28;20053;-70
2023/02/22 00:50:10;;;;;;;11.95;5.40;;;4.00;99.90;;;;;;5019674;28;20033;-69
2023/02/22 00:52:37;;;;;;;10.68;5.20;;;4.10;99.90;;;;;;5016581;28;20109;-69
2023/02/22 00:55:06;;;;;;;11.40;5.20;;;4.10;99.90;;;;;;5019002;28;20025;-69
2023/02/22 00:57:36;;;;;;;13.40;5.40;;;4.10;99.90;;;;;;5020066;28;20029;-69
2023/02/22 01:00:10;;;;;;;9.83;5.63;;;4.00;99.90;;;;;;5011981;28;20033;-69
2023/02/22 01:02:37;;;;;;;11.68;5.50;;;4.00;99.90;;;;;;5018868;28;20118;-69
2023/02/22 01:05:05;;;;;;;13.02;6.05;;;4.00;99.90;;;;;;5012601;28;20041;-68
2023/02/22 01:07:30;;;;;;;12.52;5.25;;;3.90;99.90;;;;;;5016482;28;20038;-69
2023/02/22 01:09:56;;;;;;;13.68;5.70;;;3.90;99.90;;;;;;5018047;28;20116;-69
2023/02/22 01:12:22;;;;;;;11.70;5.57;;;3.80;99.90;;;;;;5018604;28;20099;-68
2023/02/22 01:14:47;;;;;;;10.77;5.82;;;3.80;99.90;;;;;;5019359;28;20028;-68
2023/02/22 01:17:13;;;;;;;8.35;4.53;;;3.80;99.90;;;;;;5016429;28;20475;-68
2023/02/22 01:19:41;;;;;;;10.65;5.43;;;3.70;99.90;;;;;;5011872;28;20018;-69
2023/02/22 01:22:07;;;;;;;9.68;5.75;;;3.70;99.90;;;;;;5019791;28;20108;-69
2023/02/22 01:24:33;;;;;;;13.27;5.93;;;3.70;99.90;;;;;;5012186;28;20093;-69
2023/02/22 01:26:59;;;;;;;12.55;5.47;;;3.60;99.90;;;;;;5025099;28;20084;-69
2023/02/22 01:29:24;;;;;;;10.40;5.53;;;3.60;99.90;;;;;;4999675;28;20052;-69
2023/02/22 01:31:54;;;;;;;11.38;6.05;;;3.50;99.90;;;;;;5013423;28;20125;-69
2023/02/22 01:34:21;;;;;;;;;;;3.50;99.90;;;;;;5022792;28;20038;-69
2023/02/22 01:36:47;;;;;;;13.73;6.50;;;3.50;99.90;;;;;;5018718;28;20337;-69
2023/02/22 01:39:13;;;;;;;13.00;6.32;;;3.50;99.90;;;;;;5018667;28;20033;-69
2023/02/22 01:41:38;;;;;;;14.00;6.50;;;3.50;99.90;;;;;;5005295;28;20470;-69
2023/02/22 01:44:29;;;;;;;12.02;6.43;;;3.60;99.90;;;;;;5016351;28;20030;-69
2023/02/22 01:46:56;;;;;;;12.68;6.78;;;3.60;99.90;;;;;;5013103;28;20026;-70
2023/02/22 01:49:32;;;;;;;12.60;7.13;;;3.60;99.90;;;;;;5014266;28;20407;-68
2023/02/22 01:52:02;;;;;;;10.90;6.00;;;3.60;99.90;;;;;;5016308;28;20493;-68
2023/02/22 01:54:40;;;;;;;10.73;5.78;;;3.50;99.90;;;;;;5015418;28;20030;-68
2023/02/22 01:57:34;;;;;;;17.48;7.50;;;3.50;99.90;;;;;;5015238;28;20038;-68
2023/02/22 02:00:09;;;;;;;13.52;6.70;;;3.40;99.90;;;;;;5015859;28;20367;-68
2023/02/22 02:02:36;;;;;;;14.68;7.65;;;3.50;99.90;;;;;;5016592;28;20030;-68
2023/02/22 02:05:06;;;;;;;13.93;6.65;;;3.50;99.90;;;;;;5015348;28;20036;-69
2023/02/22 02:07:33;;;;;;;12.73;6.80;;;3.40;99.90;;;;;;5022237;28;20434;-68
2023/02/22 02:10:02;;;;;;;13.60;6.55;;;3.40;99.90;;;;;;5019084;28;20481;-69
2023/02/22 02:12:32;;;;;;;13.82;7.55;;;3.30;99.90;;;;;;5019453;28;20045;-68
2023/02/22 02:15:24;;;;;;;14.43;6.65;;;3.30;99.90;;;;;;5010188;28;20499;-68
2023/02/22 02:17:52;;;;;;;10.25;6.45;;;3.30;99.90;;;;;;5014256;28;20029;-68
2023/02/22 02:20:47;;;;;;;15.68;6.75;;;3.20;99.90;;;;;;5021858;28;20033;-69
2023/02/22 02:23:54;;;;;;;14.52;7.75;;;3.20;99.90;;;;;;5011516;28;20030;-69
2023/02/22 02:27:01;;;;;;;13.57;7.60;;;3.20;99.90;;;;;;5013543;28;20320;-68
2023/02/22 02:29:49;;;;;;;15.68;6.90;;;3.20;99.90;;;;;;4942159;28;20123;-68
2023/02/22 02:32:33;;;;;;;15.60;7.78;;;3.20;99.90;;;;;;5028508;28;20112;-68
2023/02/22 02:35:14;;;;;;;17.30;7.70;;;3.20;99.90;;;;;;5010348;28;20467;-68
2023/02/22 02:37:39;;;;;;;;;;;3.20;99.90;;;;;;5024261;28;20108;-68
2023/02/22 02:40:25;;;;;;;13.80;7.43;;;3.20;99.90;;;;;;5015160;28;19942;-69
2023/02/22 02:43:12;;;;;;;19.67;8.85;;;3.20;99.90;;;;;;5018435;28;20030;-70
2023/02/22 02:45:43;;;;;;;19.13;9.07;;;3.20;99.90;;;;;;5018666;28;20029;-68
2023/02/22 02:48:12;;;;;;;15.18;8.73;;;3.30;99.90;;;;;;5014963;28;20021;-68
2023/02/22 02:50:43;;;;;;;18.70;8.37;;;3.30;99.90;;;;;;4997591;28;20037;-69
2023/02/22 02:53:11;;;;;;;16.90;8.45;;;3.30;99.90;;;;;;4998936;28;20269;-69
2023/02/22 02:55:37;;;;;;;14.35;7.88;;;3.30;99.90;;;;;;4993428;28;20463;-69
2023/02/22 02:58:07;;;;;;;17.52;8.60;;;3.30;99.90;;;;;;5017281;28;20036;-69
2023/02/22 03:00:38;;;;;;;;;;;3.30;99.90;;;;;;5015388;28;20065;-68
2023/02/22 03:03:10;;;;;;;15.27;8.43;;;3.30;99.90;;;;;;5020260;28;19906;-69
2023/02/22 03:05:42;;;;;;;14.90;7.55;;;3.30;99.90;;;;;;5014143;28;20068;-70
2023/02/22 03:08:26;;;;;;;15.07;8.63;;;3.30;99.90;;;;;;5018885;28;20026;-70
2023/02/22 03:11:13;;;;;;;15.52;7.80;;;3.30;99.90;;;;;;5013049;28;20748;-70
2023/02/22 03:13:57;;;;;;;11.45;7.75;;;3.30;99.90;;;;;;5020898;28;20054;-70
2023/02/22 03:16:46;;;;;;;16.40;7.70;;;3.20;99.90;;;;;;5018989;28;20034;-70
2023/02/22 03:19:30;;;;;;;18.17;7.75;;;3.20;99.90;;;;;;5017008;28;20079;-69
2023/02/22 03:22:31;;;;;;;17.10;7.97;;;3.10;99.90;;;;;;5027240;28;20079;-70
2023/02/22 03:25:18;;;;;;;14.13;8.80;;;3.10;99.90;;;;;;5013438;28;20038;-68
2023/02/22 03:27:52;;;;;;;22.55;9.52;;;3.10;99.90;;;;;;5021117;28;20029;-71
2023/02/22 03:30:25;;;;;;;16.90;8.30;;;3.10;99.90;;;;;;5016970;28;20041;-69
2023/02/22 03:32:58;;;;;;;21.27;9.55;;;3.10;99.90;;;;;;5009449;28;20029;-70
2023/02/22 03:35:29;;;;;;;13.05;7.50;;;3.20;99.90;;;;;;5014825;28;20471;-70
2023/02/22 03:37:59;;;;;;;14.80;7.65;;;3.20;99.90;;;;;;5014675;28;20480;-69
2023/02/22 03:40:33;;;;;;;15.80;8.05;;;3.10;99.90;;;;;;5025953;28;20037;-67
2023/02/22 03:43:09;;;;;;;12.65;7.82;;;3.00;99.90;;;;;;5024495;28;20052;-70
2023/02/22 03:45:37;;;;;;;14.93;7.97;;;3.00;99.90;;;;;;5024567;28;20083;-70
2023/02/22 03:48:37;;;;;;;16.50;8.43;;;3.00;99.90;;;;;;5031248;28;20063;-70
2023/02/22 03:51:03;;;;;;;16.77;8.05;;;2.90;99.90;;;;;;4986366;28;20042;-69
2023/02/22 03:53:31;;;;;;;13.77;7.93;;;2.90;99.90;;;;;;5020359;28;20423;-69
2023/02/22 03:55:59;;;;;;;18.25;8.40;;;2.80;99.90;;;;;;5031917;28;20104;-69
2023/02/22 03:58:29;;;;;;;13.57;7.63;;;2.80;99.90;;;;;;5022107;28;20025;-69
2023/02/22 04:00:54;;;;;;;16.10;8.10;;;2.80;99.90;;;;;;5013464;28;20117;-69
2023/02/22 04:03:21;;;;;;;14.48;8.15;;;2.80;99.90;;;;;;5013686;28;20121;-69
2023/02/22 04:05:48;;;;;;;15.52;9.10;;;2.80;99.90;;;;;;5012613;28;20026;-70
2023/02/22 04:08:14;;;;;;;15.27;8.82;;;2.80;99.90;;;;;;5025959;28;20053;-70
2023/02/22 04:10:39;;;;;;;16.08;8.95;;;2.80;99.90;;;;;;5026733;28;20084;-70
2023/02/22 04:13:09;;;;;;;17.92;7.47;;;2.70;99.90;;;;;;5025298;28;20156;-70
2023/02/22 04:15:35;;;;;;;14.23;8.23;;;2.70;99.90;;;;;;5022619;28;20506;-69
2023/02/22 04:18:00;;;;;;;14.90;7.65;;;2.70;99.90;;;;;;5024245;28;20112;-70
2023/02/22 04:20:26;;;;;;;14.75;8.75;;;2.70;99.90;;;;;;5019114;28;20065;-68
2023/02/22 04:22:52;;;;;;;15.38;8.27;;;2.60;99.90;;;;;;5020992;28;20068;-70
2023/02/22 04:25:19;;;;;;;15.98;8.20;;;2.60;99.90;;;;;;5022061;28;20036;-68
2023/02/22 04:27:44;;;;;;;14.05;8.13;;;2.60;99.90;;;;;;5021350;28;20034;-70
2023/02/22 04:30:11;;;;;;;15.05;8.45;;;2.60;99.90;;;;;;5019348;28;20136;-69
2023/02/22 04:32:38;;;;;;;18.42;8.30;;;2.50;99.90;;;;;;5024042;28;20104;-69
2023/02/22 04:35:05;;;;;;;18.80;9.82;;;2.50;99.90;;;;;;5017579;28;20017;-68
2023/02/22 04:37:33;;;;;;;19.05;9.18;;;2.50;99.90;;;;;;5019151;28;20026;-69
2023/02/22 04:40:06;;;;;;;17.15;9.40;;;2.50;99.90;;;;;;5011579;28;20041;-68
2023/02/22 04:42:32;;;;;;;14.80;8.75;;;2.70;99.90;;;;;;5017719;28;20026;-68
2023/02/22 04:44:58;;;;;;;14.38;8.23;;;2.60;99.90;;;;;;5015600;28;20025;-68
2023/02/22 04:47:24;;;;;;;14.13;8.32;;;2.60;99.90;;;;;;5020467;28;20118;-68
2023/02/22 04:49:49;;;;;;;16.88;8.55;;;2.50;99.90;;;;;;4994535;28;20046;-69
2023/02/22 04:52:15;;;;;;;15.43;8.70;;;2.40;99.90;;;;;;5024737;28;20029;-69
2023/02/22 04:54:40;;;;;;;15.07;8.80;;;2.30;99.90;;;;;;5017041;28;20100;-69
2023/02/22 04:57:06;;;;;;;15.88;8.50;;;2.30;99.90;;;;;;5012143;28;20030;-68
2023/02/22 04:59:32;;;;;;;19.10;8.85;;;2.30;99.90;;;;;;5024111;28;20029;-69
2023/02/22 05:01:57;;;;;;;20.45;8.93;;;2.30;99.90;;;;;;5020620;28;20022;-69
2023/02/22 05:04:23;;;;;;;21.60;9.75;;;2.30;99.90;;;;;;5019098;28;20045;-69
2023/02/22 05:06:49;;;;;;;16.10;9.30;;;2.30;99.90;;;;;;5029270;28;20104;-68
2023/02/22 05:09:14;;;;;;;18.33;8.93;;;2.20;99.90;;;;;;5017506;28;20030;-68
2023/02/22 05:11:40;;;;;;;13.75;8.70;;;2.20;99.90;;;;;;5023156;28;20095;-69
2023/02/22 05:14:06;;;;;;;16.60;9.00;;;2.10;99.90;;;;;;5013122;28;20033;-69
2023/02/22 05:16:32;;;;;;;17.85;9.52;;;2.10;99.90;;;;;;5023588;28;20026;-69
2023/02/22 05:18:58;;;;;;;20.60;10.63;;;2.10;99.90;;;;;;5014648;28;20537;-69
2023/02/22 05:21:23;;;;;;;14.90;9.27;;;2.20;99.90;;;;;;5017554;28;20036;-69
2023/02/22 05:23:49;;;;;;;18.38;9.98;;;2.20;99.90;;;;;;5019408;28;20029;-69
2023/02/22 05:26:14;;;;;;;14.48;8.65;;;2.20;99.90;;;;;;5015855;28;20518;-69
2023/02/22 05:28:40;;;;;;;16.98;10.60;;;2.20;99.90;;;;;;5019572;28;20117;-69
2023/02/22 05:31:07;;;;;;;19.92;9.88;;;2.20;99.90;;;;;;5018571;28;20034;-69
2023/02/22 05:33:33;;;;;;;19.65;9.52;;;2.20;99.90;;;;;;5020884;28;20029;-69
2023/02/22 05:35:58;;;;;;;22.38;10.02;;;2.20;99.90;;;;;;5015879;28;20036;-69
2023/02/22 05:38:24;;;;;;;20.20;9.45;;;2.20;99.90;;;;;;5021258;28;20532;-69
2023/02/22 05:40:49;;;;;;;15.68;9.45;;;2.30;99.90;;;;;;5017717;28;20037;-69
2023/02/22 05:43:15;;;;;;;18.45;9.80;;;2.30;99.90;;;;;;5018409;28;20042;-68
2023/02/22 05:45:41;;;;;;;16.52;9.82;;;2.30;99.90;;;;;;5020897;28;20029;-68
2023/02/22 05:48:07;;;;;;;19.15;9.38;;;2.30;99.90;;;;;;5024224;28;20093;-70
2023/02/22 05:50:33;;;;;;;17.00;9.65;;;2.30;99.90;;;;;;5023124;28;20030;-68
2023/02/22 05:52:59;;;;;;;18.20;9.27;;;2.30;99.90;;;;;;5012502;28;20026;-69
2023/02/22 05:55:25;;;;;;;19.95;9.48;;;2.30;99.90;;;;;;5014988;28;20132;-69
2023/02/22 05:57:51;;;;;;;16.00;9.25;;;2.30;99.90;;;;;;5019055;28;20032;-69
2023/02/22 06:00:22;;;;;;;16.05;8.63;;;2.30;99.90;;;;;;5011390;28;20038;-68
2023/02/22 06:02:56;;;;;;;21.38;9.48;;;2.30;99.90;;;;;;5014719;28;20029;-69
2023/02/22 06:05:22;;;;;;;17.13;8.63;;;2.30;99.90;;;;;;5021315;28;20413;-69
2023/02/22 06:07:48;;;;;;;16.70;8.95;;;2.30;99.90;;;;;;5019842;28;20109;-69
2023/02/22 06:10:13;;;;;;;16.83;9.10;;;2.30;99.90;;;;;;5019085;28;20038;-69
2023/02/22 06:12:39;;;;;;;17.67;9.95;;;2.30;99.90;;;;;;5016002;28;20069;-69
2023/02/22 06:15:05;;;;;;;15.88;9.68;;;2.40;99.90;;;;;;5013425;28;20022;-69
2023/02/22 06:17:31;;;;;;;12.90;8.43;;;2.40;99.90;;;;;;5016664;28;20367;-69
2023/02/22 06:19:56;;;;;;;17.27;9.15;;;2.40;99.90;;;;;;5015029;28;20038;-69
2023/02/22 06:22:22;;;;;;;17.10;9.73;;;2.30;99.90;;;;;;5018675;28;20033;-68
2023/02/22 06:24:47;;;;;;;20.67;10.02;;;2.30;99.90;;;;;;4997241;28;20033;-69
2023/02/22 06:27:13;;;;;;;16.13;9.85;;;2.30;99.90;;;;;;5017975;28;20080;-69
2023/02/22 06:29:45;;;;;;;19.85;9.82;;;2.30;99.90;;;;;;5016396;28;20105;-67
2023/02/22 06:32:11;;;;;;;20.30;9.85;;;2.30;99.90;;;;;;5016406;28;20072;-67
2023/02/22 06:34:36;;;;;;;19.17;9.23;;;2.40;99.90;;;;;;5003646;28;20057;-66
2023/02/22 06:37:02;;;;;;;16.73;9.43;;;2.40;99.90;;;;;;5020128;28;20066;-66
2023/02/22 06:39:27;;;;;;;16.98;9.68;;;2.40;99.90;;;;;;5016628;28;20034;-68
2023/02/22 06:41:55;;;;;;;18.33;9.43;;;2.40;99.90;;;;;;4996882;28;20030;-67
2023/02/22 06:44:20;;;;;;;20.15;9.63;;;2.40;99.90;;;;;;5016525;28;20037;-67
2023/02/22 06:46:50;;;;;;;17.17;9.18;;;2.40;99.90;;;;;;5015562;28;20470;-69
2023/02/22 06:49:16;;;;;;;20.95;10.15;;;2.50;99.90;;;;;;5022396;28;20041;-67
2023/02/22 06:51:42;;;;;;;22.63;11.13;;;2.50;99.90;;;;;;5025127;28;20056;-67
2023/02/22 06:54:07;;;;;;;20.83;9.95;;;2.50;99.90;;;;;;5020315;28;20026;-67
2023/02/22 06:56:33;;;;;;;21.35;10.40;;;2.60;99.90;;;;;;5022507;28;20080;-69
2023/02/22 06:59:00;;;;;;;19.95;10.07;;;2.70;99.90;;;;;;5015939;28;20133;-68
2023/02/22 07:01:26;;;;;;;21.95;10.45;;;2.70;99.90;;;;;;5024837;28;20219;-68
2023/02/22 07:03:52;;;;;;;20.55;10.55;;;2.90;99.90;;;;;;5018875;28;20074;-67
2023/02/22 07:06:18;;;;;;;19.58;9.95;;;3.00;99.90;;;;;;5027610;28;20121;-67
2023/02/22 07:08:43;;;;;;;21.60;10.10;;;3.00;99.90;;;;;;5021780;28;20109;-70
2023/02/22 07:11:09;;;;;;;19.48;9.38;;;3.10;99.90;;;;;;5017898;28;20037;-67
2023/02/22 07:13:34;;;;;;;16.98;9.77;;;3.10;99.90;;;;;;5021410;28;20056;-67
2023/02/22 07:16:00;;;;;;;19.50;9.93;;;3.20;99.90;;;;;;5018394;28;20394;-67
2023/02/22 07:18:26;;;;;;;23.25;10.93;;;3.30;99.90;;;;;;5021631;28;20052;-67
2023/02/22 07:20:53;;;;;;;19.40;11.23;;;3.40;99.90;;;;;;5018074;28;20061;-67
2023/02/22 07:23:19;;;;;;;23.30;10.38;;;3.50;99.90;;;;;;5015984;28;20030;-68
2023/02/22 07:25:44;;;;;;;17.05;10.52;;;3.60;99.90;;;;;;5024669;28;20029;-71
2023/02/22 07:28:10;;;;;;;23.05;11.18;;;3.70;99.90;;;;;;5020422;28;20037;-67
2023/02/22 07:30:36;;;;;;;18.92;11.27;;;3.70;99.90;;;;;;5021765;28;20045;-68
2023/02/22 07:33:04;;;;;;;22.83;11.60;;;3.80;99.90;;;;;;5014455;28;20026;-67
2023/02/22 07:35:35;;;;;;;21.90;11.45;;;3.90;99.90;;;;;;5022595;28;20060;-68
2023/02/22 07:38:02;;;;;;;21.33;11.40;;;4.00;99.90;;;;;;5024799;28;20037;-67
2023/02/22 07:40:28;;;;;;;25.50;13.55;;;4.10;99.90;;;;;;5013560;28;20486;-68
2023/02/22 07:43:04;;;;;;;21.38;12.38;;;4.20;99.90;;;;;;5019419;28;20032;-67
2023/02/22 07:45:32;;;;;;;19.33;10.90;;;4.20;99.90;;;;;;5016670;28;20371;-67
2023/02/22 07:48:00;;;;;;;19.50;11.13;;;4.30;99.90;;;;;;5018238;28;20045;-67
2023/02/22 07:50:29;;;;;;;19.48;11.32;;;4.30;99.90;;;;;;5014956;28;20045;-67
2023/02/22 07:52:57;;;;;;;20.17;9.57;;;4.40;99.90;;;;;;5028933;28;20025;-68
2023/02/22 07:55:26;;;;;;;16.77;9.95;;;4.50;99.90;;;;;;5021570;28;20100;-68
2023/02/22 07:57:54;;;;;;;15.88;9.38;;;4.60;99.90;;;;;;5015361;28;20034;-70
2023/02/22 08:00:28;;;;;;;22.30;9.98;;;4.80;99.90;;;;;;5020585;28;20425;-67
2023/02/22 08:02:55;;;;;;;14.93;8.63;;;4.90;99.90;;;;;;5024061;28;20025;-67
2023/02/22 08:05:24;;;;;;;14.38;8.55;;;5.00;99.90;;;;;;5022616;28;20065;-66
2023/02/22 08:07:50;;;;;;;17.73;8.82;;;5.10;99.90;;;;;;5026901;28;20076;-67
2023/02/22 08:10:17;;;;;;;14.60;8.98;;;5.30;99.90;;;;;;5023585;28;20037;-68
2023/02/22 08:12:42;;;;;;;19.30;9.55;;;5.40;99.90;;;;;;5032224;28;20462;-68
2023/02/22 08:15:14;;;;;;;15.13;8.65;;;5.60;99.90;;;;;;5032642;28;20068;-66
2023/02/22 08:17:40;;;;;;;14.73;8.27;;;5.70;99.90;;;;;;5017192;28;20049;-66
2023/02/22 08:20:06;;;;;;;14.82;8.45;;;5.90;99.90;;;;;;5012522;28;20030;-69
2023/02/22 08:22:31;;;;;;;17.70;9.05;;;6.10;99.90;;;;;;5020921;28;20037;-68
2023/02/22 08:24:57;;;;;;;15.82;8.68;;;6.30;99.90;;;;;;5013912;28;20026;-68
2023/02/22 08:27:24;;;;;;;15.60;8.30;;;6.40;99.90;;;;;;5024885;28;20117;-66
2023/02/22 08:29:51;;;;;;;18.63;9.20;;;6.60;99.90;;;;;;5013270;28;20034;-67
2023/02/22 08:32:16;;;;;;;17.45;8.70;;;6.70;99.90;;;;;;5012810;28;20080;-67
2023/02/22 08:34:43;;;;;;;21.33;9.10;;;6.80;99.90;;;;;;5015885;28;20053;-67
2023/02/22 08:37:09;;;;;;;15.00;8.20;;;6.90;99.90;;;;;;5016748;28;20032;-67
2023/02/22 08:39:35;;;;;;;18.50;8.90;;;7.10;99.90;;;;;;5014833;28;20112;-68
2023/02/22 08:42:00;;;;;;;12.30;7.88;;;7.20;99.90;;;;;;5018018;28;20079;-67
2023/02/22 08:44:26;;;;;;;19.38;9.60;;;7.30;99.90;;;;;;5012775;28;20071;-67
2023/02/22 08:46:52;;;;;;;15.07;8.38;;;7.50;99.90;;;;;;5018665;28;20029;-69
2023/02/22 08:49:19;;;;;;;18.20;9.43;;;7.70;99.90;;;;;;5017435;28;20378;-68
2023/02/22 08:51:45;;;;;;;18.70;9.18;;;7.80;99.90;;;;;;5020504;28;20071;-70
2023/02/22 08:54:11;;;;;;;14.43;7.88;;;8.00;99.90;;;;;;5019493;28;20029;-68
2023/02/22 08:56:36;;;;;;;17.73;9.30;;;8.00;99.90;;;;;;5017742;28;20502;-68
2023/02/22 08:59:02;;;;;;;16.63;8.95;;;8.20;99.90;;;;;;5018844;28;20184;-68
2023/02/22 09:01:28;;;;;;;18.92;9.25;;;8.30;99.90;;;;;;5016952;28;20034;-68
2023/02/22 09:03:54;;;;;;;16.70;8.50;;;8.50;99.90;;;;;;5011367;28;20026;-68
2023/02/22 09:06:21;;;;;;;21.00;8.77;;;8.60;99.90;;;;;;5013879;28;20049;-68
2023/02/22 09:08:46;;;;;;;14.25;9.00;;;8.70;99.90;;;;;;5018396;28;20394;-69
2023/02/22 09:11:12;;;;;;;20.52;9.25;;;8.70;99.90;;;;;;5022264;28;20132;-68
2023/02/22 09:13:37;;;;;;;20.70;8.88;;;8.70;99.90;;;;;;5027330;28;20100;-67
2023/02/22 09:16:03;;;;;;;18.77;8.43;;;8.70;99.90;;;;;;5012260;28;20021;-67
2023/02/22 09:18:29;;;;;;;16.85;8.80;;;8.70;99.90;;;;;;5023850;28;20114;-68
2023/02/22 09:20:54;;;;;;;16.27;8.32;;;8.70;99.90;;;;;;5022901;28;20474;-68
2023/02/22 09:23:20;;;;;;;14.02;8.90;;;8.70;99.90;;;;;;5013326;28;20030;-68
2023/02/22 09:25:49;;;;;;;15.43;9.25;;;8.90;99.90;;;;;;5020188;28;20173;-70
2023/02/22 09:28:15;;;;;;;13.23;8.50;;;9.00;99.90;;;;;;5016169;28;20033;-68
2023/02/22 09:30:41;;;;;;;18.17;9.52;;;9.00;99.90;;;;;;5018636;28;20038;-68
2023/02/22 09:33:13;;;;;;;18.95;8.70;;;9.10;99.90;;;;;;5016499;28;20190;-68
2023/02/22 09:35:41;;;;;;;16.52;8.57;;;9.20;99.90;;;;;;5019133;28;20034;-69
2023/02/22 09:38:07;;;;;;;18.98;9.07;;;9.30;99.90;;;;;;5016158;28;20071;-68
2023/02/22 09:40:39;;;;;;;19.38;9.60;;;9.40;99.90;;;;;;5022256;28;20044;-68
2023/02/22 09:43:36;;;;;;;20.08;8.63;;;9.40;99.90;;;;;;5013285;28;20602;-67
2023/02/22 09:46:05;;;;;;;13.82;9.18;;;;;;;;;;5018524;28;20026;-68
2023/02/22 09:48:34;;;;;;;18.63;9.75;;;;;;;;;;5022908;28;20355;-68
2023/02/22 09:51:01;;;;;;;15.68;8.27;;;;;;;;;;5022786;28;20159;-68
2023/02/22 09:53:30;;;;;;;13.68;8.25;;;;;;;;;;5022435;28;20509;-68
2023/02/22 09:56:00;;;;;;;16.65;8.77;;;;;;;;;;5016640;28;20045;-69
2023/02/22 09:58:32;;;;;;;17.73;8.40;;;;;;;;;;5025120;28;20382;-66
2023/02/22 10:01:08;;;;;;;19.42;9.25;;;10.60;99.90;;;;;;5018497;28;20045;-67
2023/02/22 10:03:53;;;;;;;18.45;9.40;;;10.60;99.90;;;;;;5026163;28;20530;-67
2023/02/22 10:06:23;;;;;;;19.88;8.98;;;10.60;99.90;;;;;;5024492;28;20041;-67
2023/02/22 10:08:55;;;;;;;19.35;9.55;;;10.70;99.90;;;;;;5023157;28;20036;-68
2023/02/22 10:11:53;;;;;;;16.52;8.77;;;10.80;99.90;;;;;;5013496;28;20125;-69
2023/02/22 10:14:28;;;;;;;13.40;8.23;;;;;;;;;;5016019;28;20037;-68
2023/02/22 10:17:05;;;;;;;13.68;8.48;;;;;;;;;;5022985;28;20028;-67
2023/02/22 10:19:49;;;;;;;16.23;8.75;;;;;;;;;;5020987;28;20018;-68
2023/02/22 10:22:31;;;;;;;15.52;8.32;;;;;;;;;;5013335;28;20101;-68
2023/02/22 10:25:03;;;;;;;15.90;7.90;;;12.00;99.90;;;;;;5022059;28;20030;-68
2023/02/22 10:27:36;;;;;;;13.98;7.80;;;12.00;99.90;;;;;;5026625;28;20524;-68
2023/02/22 10:30:27;;;;;;;12.80;7.68;;;12.10;99.90;;;;;;5021010;28;20117;-68
2023/02/22 10:33:16;;;;;;;19.63;7.55;;;12.20;99.90;;;;;;5021868;28;20060;-68
2023/02/22 10:35:43;;;;;;;14.85;7.97;;;12.40;99.90;;;;;;5022312;28;20037;-68
2023/02/22 10:38:19;;;;;;;11.65;7.45;;;12.50;99.90;;;;;;5017688;28;20533;-69
2023/02/22 10:40:53;;;;;;;14.30;7.50;;;12.70;99.90;;;;;;5019825;28;20111;-70
2023/02/22 10:43:20;;;;;;;15.05;7.80;;;12.80;99.90;;;;;;5027462;28;20051;-69
2023/02/22 10:45:45;;;;;;;18.92;7.75;;;12.80;99.90;;;;;;5017418;28;20037;-70
2023/02/22 10:48:17;;;;;;;14.15;7.82;;;13.00;99.90;;;;;;5018039;28;20041;-70
2023/02/22 10:50:45;;;;;;;12.82;8.82;;;13.10;99.90;;;;;;5018825;28;20088;-68
2023/02/22 10:53:14;;;;;;;13.27;7.35;;;13.30;99.90;;;;;;5018576;28;20030;-69
2023/02/22 10:56:14;;;;;;;12.63;7.68;;;13.30;99.90;;;;;;5015020;28;20026;-69
2023/02/22 10:58:54;;;;;;;21.10;8.82;;;13.30;99.90;;;;;;5014041;28;20034;-68
2023/02/22 11:01:25;;;;;;;15.73;7.53;;;13.50;99.90;;;;;;5027488;28;20091;-69
2023/02/22 11:04:11;;;;;;;16.73;8.18;;;13.60;99.90;;;;;;5017813;28;20041;-69
2023/02/22 11:06:39;;;;;;;17.70;9.02;;;13.70;99.90;;;;;;5024070;28;20057;-68
2023/02/22 11:09:11;;;;;;;22.27;9.23;;;13.80;99.90;;;;;;5030676;28;20021;-68
2023/02/22 11:11:40;;;;;;;16.00;7.60;;;13.90;99.90;;;;;;5017954;28;20034;-68
2023/02/22 11:14:09;;;;;;;20.77;8.25;;;13.90;99.90;;;;;;5006455;28;20524;-68
2023/02/22 11:16:48;;;;;;;19.88;7.90;;;13.90;99.90;;;;;;5014173;28;20026;-68
2023/02/22 11:19:28;;;;;;;18.33;7.80;;;13.90;99.90;;;;;;5005914;28;20030;-69
2023/02/22 11:22:10;;;;;;;16.73;8.00;;;14.00;99.90;;;;;;5001219;28;20093;-68
2023/02/22 11:24:53;;;;;;;14.73;8.68;;;14.10;99.90;;;;;;4994071;28;20391;-68
2023/02/22 11:27:42;;;;;;;14.55;8.10;;;14.30;99.90;;;;;;5002195;28;20026;-69
2023/02/22 11:30:20;;;;;;;14.57;8.48;;;14.40;99.90;;;;;;4996601;28;20046;-69
2023/02/22 11:32:54;;;;;;;14.50;8.65;;;14.40;99.90;;;;;;5001805;28;20025;-70
2023/02/22 11:35:34;;;;;;;12.35;8.23;;;14.50;99.90;;;;;;4996118;28;20026;-68
2023/02/22 11:38:14;;;;;;;16.17;8.38;;;14.50;99.90;;;;;;5004159;28;20394;-68
2023/02/22 11:40:40;;;;;;;14.90;8.65;;;14.50;99.90;;;;;;4996685;28;20156;-68
2023/02/22 11:43:15;;;;;;;18.20;8.68;;;14.60;99.90;;;;;;4995547;28;20106;-68
2023/02/22 11:46:08;;;;;;;13.85;9.02;;;14.60;99.90;;;;;;5001459;28;20069;-69
2023/02/22 11:48:37;;;;;;;15.02;8.55;;;14.50;99.90;;;;;;5001140;28;20033;-68
2023/02/22 11:51:53;;;;;;;13.68;8.25;;;14.50;99.90;;;;;;5001415;28;20040;-69
2023/02/22 11:54:37;;;;;;;12.10;8.32;;;14.50;99.90;;;;;;4931407;29;20040;-68
2023/02/22 11:57:20;;;;;;;17.33;8.18;;;14.60;99.90;;;;;;4927922;29;20456;-68
2023/02/22 12:00:14;;;;;;;12.82;7.90;;;14.70;99.90;;;;;;4926475;29;20111;-70
2023/02/22 12:02:52;;;;;;;10.98;8.18;;;14.70;99.90;;;;;;4928116;29;20035;-68
2023/02/22 12:05:44;;;;;;;15.30;10.38;;;14.80;99.90;;;;;;4929510;29;20083;-69
2023/02/22 12:08:55;;;;;;;17.13;10.35;;;15.00;99.90;;;;;;4920864;29;20031;-68
2023/02/22 12:11:43;;;;;;;15.07;9.88;;;15.00;99.90;;;;;;4922065;29;20428;-67
2023/02/22 12:14:11;;;;;;;18.17;10.50;;;15.10;99.90;;;;;;4924548;29;20083;-69
2023/02/22 12:17:01;;;;;;;15.90;10.27;;;15.00;99.90;;;;;;4931334;29;20035;-69
2023/02/22 12:19:38;;;;;;;17.90;10.20;;;15.30;99.90;;;;;;4931950;29;20052;-69
2023/02/22 12:22:17;;;;;;;11.63;8.80;;;15.40;99.90;;;;;;4931912;29;20130;-69
2023/02/22 12:24:58;;;;;;;13.38;9.80;;;15.50;99.90;;;;;;4953580;28;20101;-71
2023/02/22 12:27:38;;;;;;;18.73;9.60;;;15.70;99.80;;;;;;4995905;28;20031;-68
2023/02/22 12:30:27;;;;;;;15.93;9.95;;;15.80;99.00;;;;;;5002478;28;20038;-68
2023/02/22 12:32:58;;;;;;;15.03;9.67;;;15.70;99.10;;;;;;5011763;28;20403;-68
2023/02/22 12:35:33;;;;;;;17.05;10.15;;;15.50;98.80;;;;;;5013032;28;20272;-67
2023/02/22 12:38:21;;;;;;;18.27;9.68;;;15.40;99.10;;;;;;4996420;28;20411;-68
2023/02/22 12:41:01;;;;;;;16.52;10.48;;;15.50;99.20;;;;;;5011191;28;20037;-70
2023/02/22 12:43:52;;;;;;;18.23;10.70;;;15.60;98.90;;;;;;5009547;28;20046;-67
2023/02/22 12:46:39;;;;;;;19.23;9.88;;;15.80;98.60;;;;;;5001280;28;20037;-68
2023/02/22 12:49:18;;;;;;;12.38;9.32;;;15.70;98.60;;;;;;5007893;28;20286;-68
2023/02/22 12:51:55;;;;;;;15.32;9.82;;;15.70;98.30;;;;;;5012858;28;20100;-69
2023/02/22 12:54:43;;;;;;;12.10;8.85;;;15.90;97.80;;;;;;4981123;28;20157;-68
2023/02/22 12:57:44;;;;;;;18.85;9.48;;;16.10;97.70;;;;;;5001551;28;20034;-68
2023/02/22 13:00:45;;;;;;;14.27;9.95;;;16.30;96.90;;;;;;4992129;28;20022;-68
2023/02/22 13:03:13;;;;;;;14.88;9.05;;;16.40;96.80;;;;;;4992187;28;20499;-68
2023/02/22 13:05:40;;;;;;;15.13;8.88;;;16.50;96.80;;;;;;4998942;28;20038;-69
2023/02/22 13:08:30;;;;;;;11.85;8.70;;;16.50;95.90;;;;;;5009803;28;20118;-69
2023/02/22 13:11:47;;;;;;;13.63;8.50;;;16.30;96.20;;;;;;5004238;28;20129;-69